METAR Data
IDs: Format: Raw Decoded Include TAF

Data at: 0255 UTC 20 Jan 2022

EGGW 200250Z AUTO 31008KT 9999 NCD 01/01 Q1031